Time;durP1;ratioP1;P1;durP2;ratioP2;P2;SDS_P1;SDS_P2;PMS_P1;PMS_P2;Temp;Humidity;BMP_temperature;BMP_pressure;BME280_temperature;BME280_humidity;BME280_pressure;Samples;Min_cycle;Max_cycle;Signal;HPM_P1;HPM_P2
2023/04/25 00:00:25;;;;;;;;;1.00;1.00;;;;;21.91;50.52;99615.86;111780;1250;19561;-38
2023/04/25 00:03:12;;;;;;;;;1.00;1.00;;;;;21.91;50.61;99614.55;112014;1266;22319;-41
2023/04/25 00:05:39;;;;;;;;;1.00;1.00;;;;;21.91;50.61;99613.63;111728;1266;21495;-39
2023/04/25 00:08:07;;;;;;;;;1.00;1.00;;;;;21.92;50.65;99617.91;111863;1266;19093;-40
2023/04/25 00:10:34;;;;;;;;;2.00;2.00;;;;;21.91;50.82;99616.57;111742;1266;20844;-39
2023/04/25 00:13:02;;;;;;;;;1.00;1.00;;;;;21.91;50.68;99612.58;111650;1266;21466;-37
2023/04/25 00:15:31;;;;;;;;;1.00;1.00;;;;;21.91;50.75;99611.16;111679;1250;19535;-39
2023/04/25 00:17:58;;;;;;;;;1.00;1.00;;;;;21.91;50.94;99608.81;111877;1250;20862;-40
2023/04/25 00:20:25;;;;;;;;;2.00;2.00;;;;;21.92;50.64;99608.59;111529;1266;21503;-39
2023/04/25 00:22:53;;;;;;;;;1.00;1.00;;;;;21.92;50.72;99612.58;111896;1250;18655;-38
2023/04/25 00:25:21;;;;;;;;;1.67;1.00;;;;;21.92;50.71;99611.02;111510;1266;19722;-38
2023/04/25 00:27:48;;;;;;;;;1.00;1.00;;;;;21.92;50.67;99609.02;111893;1250;21524;-38
2023/04/25 00:30:15;;;;;;;;;1.00;1.00;;;;;21.92;50.74;99605.95;111544;1266;18683;-38
2023/04/25 00:32:43;;;;;;;;;1.50;1.00;;;;;21.91;50.66;99606.38;111889;1266;20723;-39
2023/04/25 00:35:10;;;;;;;;;1.00;1.00;;;;;21.92;50.70;99610.77;111577;1266;20147;-38
2023/04/25 00:37:38;;;;;;;;;1.00;1.00;;;;;21.92;50.82;99613.17;111943;1253;19570;-39
2023/04/25 00:40:06;;;;;;;;;1.00;1.00;;;;;21.92;50.75;99611.48;111601;1266;19908;-38
2023/04/25 00:42:33;;;;;;;;;2.00;1.00;;;;;21.92;50.66;99606.24;111870;1266;22649;-39
2023/04/25 00:45:00;;;;;;;;;1.50;1.50;;;;;21.92;50.76;99608.46;111587;1266;18689;-39
2023/04/25 00:47:28;;;;;;;;;1.00;1.00;;;;;21.92;50.65;99606.20;111921;1266;20742;-39
2023/04/25 00:49:55;;;;;;;;;1.00;1.00;;;;;21.91;50.82;99600.38;111601;1250;21409;-39
2023/04/25 00:52:23;;;;;;;;;1.00;1.00;;;;;21.92;50.59;99597.93;111929;1253;19592;-39
2023/04/25 00:54:50;;;;;;;;;1.00;1.00;;;;;21.92;50.81;99596.84;111623;1266;21857;-39
2023/04/25 00:57:17;;;;;;;;;1.00;1.00;;;;;21.92;50.63;99597.72;111968;1266;20281;-39
2023/04/25 00:59:45;;;;;;;;;1.00;1.00;;;;;21.91;50.65;99596.17;111784;1266;18618;-38
2023/04/25 01:02:12;;;;;;;;;1.00;1.00;;;;;21.92;50.63;99598.27;111885;1266;20635;-38
2023/04/25 01:04:40;;;;;;;;;1.00;1.00;;;;;21.93;50.73;99598.85;111643;1266;20531;-38
2023/04/25 01:07:08;;;;;;;;;1.00;1.00;;;;;21.92;50.87;99605.86;111974;1250;19607;-39
2023/04/25 01:09:35;;;;;;;;;1.00;1.00;;;;;21.93;50.63;99602.72;111625;1266;22168;-39
2023/04/25 01:12:02;;;;;;;;;1.00;1.00;;;;;21.91;50.56;99599.33;111942;1250;21537;-39
2023/04/25 01:14:30;;;;;;;;;1.00;1.00;;;;;21.93;50.63;99606.20;111663;1266;21027;-39
2023/04/25 01:16:58;;;;;;;;;1.00;1.00;;;;;21.92;50.59;99601.20;111914;1266;19428;-40
2023/04/25 01:19:25;;;;;;;;;1.00;1.00;;;;;21.92;50.65;99605.86;111644;1266;20176;-39
2023/04/25 01:21:53;;;;;;;;;1.00;1.00;;;;;21.92;50.61;99603.14;111967;1250;19678;-39
2023/04/25 01:24:20;;;;;;;;;1.00;1.00;;;;;21.93;50.45;99601.79;111611;1266;19496;-39
2023/04/25 01:26:50;;;;;;;;;1.00;1.00;;;;;21.92;50.60;99602.59;111939;1266;21556;-38
2023/04/25 01:29:17;;;;;;;;;1.00;1.00;;;;;21.92;50.58;99605.37;111978;1266;18713;-39
2023/04/25 01:31:45;;;;;;;;;1.00;1.00;;;;;21.92;50.64;99604.94;111677;1250;20729;-38
2023/04/25 01:34:12;;;;;;;;;1.00;1.00;;;;;21.92;50.47;99601.84;111915;1266;21805;-39
2023/04/25 01:36:40;;;;;;;;;1.00;1.00;;;;;21.93;50.56;99606.48;111678;1266;19452;-38
2023/04/25 01:39:07;;;;;;;;;1.00;1.00;;;;;21.93;50.46;99600.86;111866;1266;20664;-39
2023/04/25 01:41:35;;;;;;;;;2.00;2.00;;;;;21.92;50.47;99610.77;111609;1266;21518;-39
2023/04/25 01:44:03;;;;;;;;;1.00;1.00;;;;;21.91;50.58;99610.35;111953;1250;19614;-40
2023/04/25 01:46:30;;;;;;;;;1.00;1.00;;;;;21.91;50.57;99612.17;111626;1266;20703;-38
2023/04/25 01:48:57;;;;;;;;;1.00;1.00;;;;;21.92;50.53;99616.65;111931;1250;21583;-38
2023/04/25 01:51:25;;;;;;;;;1.00;1.00;;;;;21.90;50.45;99613.21;111658;1259;19768;-38
2023/04/25 01:53:52;;;;;;;;;1.00;1.00;;;;;21.91;50.45;99620.55;111999;1250;20721;-38
2023/04/25 01:56:20;;;;;;;;;1.00;1.00;;;;;21.90;50.56;99622.79;111680;1251;21590;-38
2023/04/25 01:58:47;;;;;;;;;1.00;1.00;;;;;21.91;50.37;99625.02;111965;1250;19625;-40
2023/04/25 02:01:15;;;;;;;;;1.00;1.00;;;;;21.90;50.49;99624.30;111717;1266;19356;-38
2023/04/25 02:03:42;;;;;;;;;1.00;1.00;;;;;21.91;50.57;99624.25;111980;1250;21942;-39
2023/04/25 02:06:09;;;;;;;;;1.00;1.00;;;;;21.90;50.47;99623.59;111700;1250;18679;-38
2023/04/25 02:08:37;;;;;;;;;1.00;1.00;;;;;21.91;50.43;99623.88;111983;1250;20779;-38
2023/04/25 02:11:05;;;;;;;;;1.00;1.00;;;;;21.91;50.41;99624.38;111809;1266;20299;-38
2023/04/25 02:13:32;;;;;;;;;1.00;1.00;;;;;21.91;50.37;99623.61;112031;1259;18702;-38
2023/04/25 02:15:59;;;;;;;;;1.00;1.00;;;;;21.91;50.44;99625.34;111828;1250;20793;-39
2023/04/25 02:18:27;;;;;;;;;1.00;1.00;;;;;21.91;50.39;99623.45;111992;1266;21559;-41
2023/04/25 02:20:54;;;;;;;;;1.00;1.00;;;;;21.92;50.26;99626.98;111719;1266;19573;-39
2023/04/25 02:23:22;;;;;;;;;1.00;1.00;;;;;21.92;50.35;99624.63;111859;1266;19798;-39
2023/04/25 02:25:49;;;;;;;;;1.00;1.00;;;;;21.93;50.35;99628.20;111754;1250;21590;-39
2023/04/25 02:28:16;;;;;;;;;1.00;1.00;;;;;21.92;50.35;99632.64;111620;1250;18592;-39
2023/04/25 02:30:44;;;;;;;;;1.00;1.00;;;;;21.92;50.22;99630.63;111799;1250;19271;-39
2023/04/25 02:33:11;;;;;;;;;1.00;1.00;;;;;21.92;50.31;99632.14;111426;1267;20127;-39
2023/04/25 02:35:39;;;;;;;;;1.00;1.00;;;;;21.91;50.33;99631.80;111807;1266;18827;-39
2023/04/25 02:38:06;;;;;;;;;1.00;1.00;;;;;21.91;50.50;99637.26;111439;1266;19493;-39
2023/04/25 02:40:33;;;;;;;;;1.50;1.00;;;;;21.91;50.30;99635.45;111820;1250;21455;-39
2023/04/25 02:43:01;;;;;;;;;1.00;1.00;;;;;21.92;50.25;99640.11;111482;1250;19668;-39
2023/04/25 02:45:28;;;;;;;;;1.00;1.00;;;;;21.91;50.21;99638.89;111821;1266;19305;-40
2023/04/25 02:47:56;;;;;;;;;1.00;1.00;;;;;21.90;50.24;99643.55;111567;1266;20149;-39
2023/04/25 02:50:23;;;;;;;;;1.00;1.00;;;;;21.91;50.20;99644.27;111889;1266;19537;-38
2023/04/25 02:52:51;;;;;;;;;1.00;1.00;;;;;21.90;50.31;99643.14;111523;1266;20719;-40
2023/04/25 02:55:18;;;;;;;;;1.00;1.00;;;;;21.90;50.40;99642.98;111891;1266;22636;-39
2023/04/25 02:57:45;;;;;;;;;1.00;1.00;;;;;21.90;50.37;99643.10;111553;1266;19585;-39
2023/04/25 03:00:14;;;;;;;;;1.00;1.00;;;;;21.89;50.33;99643.98;111911;1250;19549;-40
2023/04/25 03:02:41;;;;;;;;;1.00;1.00;;;;;21.90;50.30;99647.67;111475;1266;21531;-40
2023/04/25 03:05:08;;;;;;;;;1.00;1.00;;;;;21.89;50.09;99643.78;111840;1266;18682;-39
2023/04/25 03:07:36;;;;;;;;;1.50;1.00;;;;;21.90;50.11;99646.96;111490;1259;20770;-39
2023/04/25 03:10:03;;;;;;;;;1.00;1.00;;;;;21.89;50.27;99646.66;111817;1266;22626;-41
2023/04/25 03:12:31;;;;;;;;;1.00;1.00;;;;;21.90;50.30;99646.80;111534;1259;18734;-39
2023/04/25 03:14:58;;;;;;;;;1.00;1.00;;;;;21.89;50.27;99648.31;111846;1266;20700;-40
2023/04/25 03:17:25;;;;;;;;;1.00;1.00;;;;;21.89;50.22;99647.92;111563;1266;21370;-39
2023/04/25 03:19:53;;;;;;;;;1.00;1.00;;;;;21.88;50.17;99645.53;111899;1250;18976;-40
2023/04/25 03:22:20;;;;;;;;;1.00;1.00;;;;;21.89;50.19;99647.05;111594;1266;21925;-38
2023/04/25 03:24:48;;;;;;;;;1.00;1.00;;;;;21.89;50.26;99646.83;111918;1251;22914;-39
2023/04/25 03:27:15;;;;;;;;;1.00;1.00;;;;;21.89;50.06;99649.23;111612;1250;20022;-41
2023/04/25 03:29:42;;;;;;;;;1.00;1.00;;;;;21.90;50.25;99646.25;111959;1250;20033;-41
2023/04/25 03:32:10;;;;;;;;;1.00;1.00;;;;;21.88;50.20;99638.31;111649;1250;21538;-41
2023/04/25 03:34:37;;;;;;;;;1.00;1.00;;;;;21.89;50.18;99645.79;111948;1266;19639;-41
2023/04/25 03:37:05;;;;;;;;;1.00;1.00;;;;;21.89;50.15;99643.95;111662;1266;20675;-41
2023/04/25 03:39:32;;;;;;;;;1.00;1.00;;;;;21.89;50.12;99650.91;111957;1266;20150;-41
2023/04/25 03:42:00;;;;;;;;;1.00;1.00;;;;;21.88;50.27;99653.85;111709;1250;20769;-40
2023/04/25 03:44:28;;;;;;;;;1.00;1.00;;;;;21.89;50.08;99650.36;111907;1254;20671;-41
2023/04/25 03:46:55;;;;;;;;;1.00;1.00;;;;;21.90;50.20;99659.73;111617;1266;20107;-42
2023/04/25 03:49:23;;;;;;;;;1.00;1.00;;;;;21.89;50.05;99663.29;111932;1266;18855;-39
2023/04/25 03:51:50;;;;;;;;;1.00;1.00;;;;;21.89;50.08;99663.30;111629;1266;21978;-40
2023/04/25 03:54:17;;;;;;;;;1.00;1.00;;;;;21.88;50.08;99666.77;111935;1266;20116;-41
2023/04/25 03:56:45;;;;;;;;;1.00;1.00;;;;;21.89;50.13;99670.73;111692;1250;20666;-41
2023/04/25 03:59:12;;;;;;;;;1.00;1.00;;;;;21.88;50.05;99676.20;111924;1266;20684;-41
2023/04/25 04:01:40;;;;;;;;;1.00;1.00;;;;;21.89;50.04;99676.02;111713;1250;20315;-41
2023/04/25 04:04:07;;;;;;;;;1.00;1.00;;;;;21.89;49.99;99681.80;111954;1259;19472;-44
2023/04/25 04:06:34;;;;;;;;;1.00;1.00;;;;;21.89;50.04;99684.32;111685;1250;20793;-41
2023/04/25 04:09:02;;;;;;;;;1.00;1.00;;;;;21.88;49.98;99686.80;111983;1250;21401;-41
2023/04/25 04:11:31;;;;;;;;;1.00;1.00;;;;;21.89;49.86;99690.31;111694;1250;19687;-41
2023/04/25 04:13:58;;;;;;;;;1.00;1.00;;;;;21.89;49.93;99689.10;111880;1266;19487;-41
2023/04/25 04:16:26;;;;;;;;;1.00;1.00;;;;;21.89;49.97;99693.05;111572;1250;21516;-40
2023/04/25 04:18:53;;;;;;;;;1.00;1.00;;;;;21.89;50.07;99695.05;111895;1266;20648;-41
2023/04/25 04:21:20;;;;;;;;;1.00;1.00;;;;;21.90;49.75;99699.72;111588;1266;20668;-41
2023/04/25 04:23:48;;;;;;;;;1.00;1.00;;;;;21.89;49.92;99697.95;111945;1266;21468;-41
2023/04/25 04:26:16;;;;;;;;;1.33;1.00;;;;;21.89;50.07;99699.81;111618;1250;19596;-42
2023/04/25 04:28:43;;;;;;;;;1.00;1.00;;;;;21.90;49.98;99704.59;111897;1250;21961;-40
2023/04/25 04:31:11;;;;;;;;;1.00;1.00;;;;;21.89;49.99;99702.58;111531;1266;21446;-41
2023/04/25 04:33:38;;;;;;;;;1.00;1.00;;;;;21.88;49.92;99702.98;111879;1266;18757;-42
2023/04/25 04:36:07;;;;;;;;;1.00;1.00;;;;;21.89;49.87;99703.80;111556;1266;20715;-41
2023/04/25 04:38:36;;;;;;;;;2.00;1.00;;;;;21.89;49.93;99705.80;111785;1266;21902;-41
2023/04/25 04:41:03;;;;;;;;;1.00;1.00;;;;;21.90;49.92;99708.40;111859;1266;18740;-42
2023/04/25 04:43:33;;;;;;;;;1.00;1.00;;;;;21.90;49.89;99708.73;111547;1266;20860;-40
2023/04/25 04:46:00;;;;;;;;;1.00;1.00;;;;;21.91;49.87;99701.56;111636;1266;20077;-42
2023/04/25 04:48:28;;;;;;;;;2.00;1.00;;;;;21.90;50.01;99704.16;111945;1250;19591;-41
2023/04/25 04:50:55;;;;;;;;;1.00;1.00;;;;;21.90;49.76;99703.08;111662;1250;20826;-40
2023/04/25 04:53:22;;;;;;;;;1.00;1.00;;;;;21.90;49.84;99703.45;111895;1250;21638;-40
2023/04/25 04:55:50;;;;;;;;;1.00;1.00;;;;;21.90;49.69;99703.95;111684;1250;19578;-40
2023/04/25 04:58:17;;;;;;;;;1.00;1.00;;;;;21.92;49.77;99705.70;111989;1266;19258;-40
2023/04/25 05:00:45;;;;;;;;;1.00;1.00;;;;;21.94;49.83;99704.15;111701;1266;22627;-40
2023/04/25 05:03:12;;;;;;;;;1.00;1.00;;;;;21.98;49.97;99707.94;111968;1250;19538;-41
2023/04/25 05:05:40;;;;;;;;;1.00;1.00;;;;;21.99;49.71;99707.89;111669;1266;20832;-40
2023/04/25 05:08:08;;;;;;;;;1.00;1.00;;;;;22.00;49.77;99715.14;111922;1266;21475;-40
2023/04/25 05:10:35;;;;;;;;;1.50;1.50;;;;;22.00;50.10;99714.65;111579;1266;20672;-41
2023/04/25 05:13:03;;;;;;;;;1.33;1.33;;;;;22.05;50.28;99717.13;111941;1250;21182;-43
2023/04/25 05:15:30;;;;;;;;;1.00;1.00;;;;;22.08;50.62;99723.27;111645;1250;22771;-40
2023/04/25 05:17:58;;;;;;;;;2.00;1.00;;;;;22.10;50.61;99720.93;111925;1250;19639;-42
2023/04/25 05:20:25;;;;;;;;;1.00;1.00;;;;;22.11;50.84;99722.98;111621;1259;19507;-41
2023/04/25 05:22:53;;;;;;;;;2.00;2.00;;;;;22.14;50.94;99724.05;111990;1250;22705;-43
2023/04/25 05:25:20;;;;;;;;;7.00;7.00;;;;;22.14;51.22;99723.96;111633;1250;19600;-41
2023/04/25 05:27:47;;;;;;;;;94.00;75.00;;;;;22.16;51.13;99726.11;111971;1266;19385;-42
2023/04/25 05:30:15;;;;;;;;;72.00;60.00;;;;;22.19;51.20;99734.80;111674;1266;22769;-41
2023/04/25 05:32:42;;;;;;;;;47.33;43.67;;;;;22.20;51.51;99734.17;111929;1266;20186;-41
2023/04/25 05:35:10;;;;;;;;;61.00;51.00;;;;;22.20;52.05;99739.24;111696;1250;22155;-41
2023/04/25 05:37:37;;;;;;;;;41.50;38.50;;;;;22.23;52.43;99739.92;112031;1250;21558;-44
2023/04/25 05:40:06;;;;;;;;;33.00;31.00;;;;;22.24;52.04;99742.69;111683;1250;21421;-41
2023/04/25 05:42:34;;;;;;;;;31.00;28.00;;;;;22.24;52.02;99745.13;111801;1250;22023;-41
2023/04/25 05:45:01;;;;;;;;;27.00;26.00;;;;;22.22;51.95;99744.23;111510;1250;21442;-41
2023/04/25 05:47:29;;;;;;;;;24.00;24.00;;;;;22.19;52.07;99741.95;111806;1266;18824;-42
2023/04/25 05:49:56;;;;;;;;;20.00;20.00;;;;;22.19;51.95;99742.83;111479;1266;19481;-41
2023/04/25 05:52:23;;;;;;;;;18.00;17.00;;;;;22.18;51.78;99743.91;111799;1250;21694;-42
2023/04/25 05:54:51;;;;;;;;;14.00;14.00;;;;;22.16;51.61;99742.14;111525;1266;19926;-41
2023/04/25 05:57:18;;;;;;;;;13.00;12.50;;;;;22.18;51.34;99744.08;111842;1266;22042;-42
2023/04/25 05:59:46;;;;;;;;;11.00;11.00;;;;;22.14;51.01;99746.98;111513;1250;21550;-43
2023/04/25 06:02:13;;;;;;;;;8.00;8.00;;;;;21.97;50.27;99740.21;111871;1265;20011;-42
2023/04/25 06:04:40;;;;;;;;;7.00;7.00;;;;;21.86;49.74;99739.15;111554;1266;20706;-41
2023/04/25 06:07:08;;;;;;;;;7.50;7.00;;;;;21.78;49.02;99742.79;111920;1266;21468;-45
2023/04/25 06:09:35;;;;;;;;;5.00;5.00;;;;;21.73;48.57;99745.09;111615;1266;18679;-42
2023/04/25 06:12:03;;;;;;;;;4.50;4.50;;;;;21.69;47.91;99747.10;111922;1265;19441;-42
2023/04/25 06:14:30;;;;;;;;;5.00;5.00;;;;;21.64;47.40;99747.22;111597;1266;21450;-43
2023/04/25 06:16:57;;;;;;;;;5.00;4.00;;;;;21.59;46.82;99745.58;111887;1250;19536;-44
2023/04/25 06:19:25;;;;;;;;;5.00;5.00;;;;;21.58;46.60;99747.34;111638;1266;20843;-43
2023/04/25 06:21:52;;;;;;;;;5.00;5.00;;;;;21.52;46.10;99749.41;111929;1266;21496;-43
2023/04/25 06:24:20;;;;;;;;;3.00;3.00;;;;;21.50;45.75;99749.95;111703;1266;18708;-43
2023/04/25 06:26:47;;;;;;;;;4.00;4.00;;;;;21.49;45.36;99753.36;111935;1266;21842;-44
2023/04/25 06:29:14;;;;;;;;;4.00;4.00;;;;;21.45;45.10;99756.65;111706;1266;21486;-43
2023/04/25 06:31:42;;;;;;;;;4.00;4.00;;;;;21.43;44.96;99756.73;111884;1266;19601;-44
2023/04/25 06:34:09;;;;;;;;;4.00;4.00;;;;;21.42;44.81;99759.25;111737;1266;20751;-43
2023/04/25 06:36:37;;;;;;;;;4.00;4.00;;;;;21.40;44.40;99761.50;111759;1250;21528;-43
2023/04/25 06:39:04;;;;;;;;;2.00;2.00;;;;;21.39;44.25;99756.59;111755;1266;18670;-44
2023/04/25 06:41:31;;;;;;;;;3.00;3.00;;;;;21.38;44.01;99759.90;111532;1266;19382;-41
2023/04/25 06:43:59;;;;;;;;;6.33;5.00;;;;;21.38;43.74;99756.92;111796;1266;21424;-42
2023/04/25 06:46:27;;;;;;;;;6.00;6.00;;;;;21.32;43.82;99754.35;111689;1250;19601;-44
2023/04/25 06:48:54;;;;;;;;;7.00;5.00;;;;;21.34;43.67;99756.10;111753;1266;20699;-44
2023/04/25 06:51:22;;;;;;;;;5.00;5.00;;;;;21.33;43.62;99756.52;111892;1250;21570;-43
2023/04/25 06:53:49;;;;;;;;;8.00;8.00;;;;;21.37;43.27;99752.65;111776;1266;19165;-43
2023/04/25 06:56:17;;;;;;;;;5.00;5.00;;;;;21.37;43.17;99753.52;111777;1266;19342;-42
2023/04/25 06:58:44;;;;;;;;;8.00;8.00;;;;;21.39;43.36;99748.95;111776;1266;21484;-40
2023/04/25 07:01:12;;;;;;;;;8.00;7.00;;;;;21.50;43.34;99751.42;111647;1250;19701;-45
2023/04/25 07:03:39;;;;;;;;;7.00;5.00;;;;;21.57;43.37;99748.39;111745;1266;20724;-42
2023/04/25 07:06:06;;;;;;;;;6.33;5.00;;;;;21.61;43.39;99748.10;111447;1266;21638;-41
2023/04/25 07:08:34;;;;;;;;;6.00;6.00;;;;;21.72;43.63;99745.39;111815;1254;19650;-42
2023/04/25 07:11:01;;;;;;;;;8.00;6.00;;;;;21.82;43.80;99748.48;111438;1266;19689;-42
2023/04/25 07:13:29;;;;;;;;;6.00;5.00;;;;;21.91;43.95;99742.64;111822;1266;20135;-42
2023/04/25 07:15:57;;;;;;;;;5.00;5.00;;;;;21.96;44.05;99748.70;111761;1266;19597;-42
2023/04/25 07:18:24;;;;;;;;;8.00;6.33;;;;;21.97;44.30;99749.53;111702;1266;20677;-43
2023/04/25 07:20:52;;;;;;;;;4.50;4.50;;;;;22.00;44.48;99750.13;111503;1250;21594;-42
2023/04/25 07:23:19;;;;;;;;;4.00;4.00;;;;;22.02;44.81;99754.32;111797;1266;18614;-43
2023/04/25 07:25:46;;;;;;;;;4.00;4.00;;;;;22.06;45.10;99757.14;111496;1266;19301;-44
2023/04/25 07:28:14;;;;;;;;;16.00;14.00;;;;;22.01;44.71;99764.32;111809;1260;22921;-43
2023/04/25 07:30:41;;;;;;;;;13.00;13.00;;;;;21.70;43.69;99762.58;111422;1266;19556;-42
2023/04/25 07:33:09;;;;;;;;;9.33;9.33;;;;;21.35;42.84;99764.55;111831;1266;19598;-44
2023/04/25 07:35:36;;;;;;;;;7.00;7.00;;;;;21.20;42.26;99762.83;111433;1250;21578;-43
2023/04/25 07:38:06;;;;;;;;;7.00;7.00;;;;;21.21;42.02;99763.83;111799;1266;20727;-43
2023/04/25 07:40:33;;;;;;;;;6.00;6.00;;;;;21.24;41.63;99767.95;111860;1266;19352;-43
2023/04/25 07:43:01;;;;;;;;;7.00;7.00;;;;;21.42;41.95;99766.33;111513;1250;21809;-42
2023/04/25 07:45:28;;;;;;;;;7.67;7.00;;;;;21.61;41.95;99768.30;111834;1266;20724;-41
2023/04/25 07:47:56;;;;;;;;;5.00;5.00;;;;;21.71;42.10;99771.33;111543;1266;20658;-42
2023/04/25 07:50:23;;;;;;;;;7.00;5.00;;;;;21.79;42.21;99771.29;111864;1250;22697;-41
2023/04/25 07:52:51;;;;;;;;;5.00;5.00;;;;;21.87;42.44;99773.66;111560;1250;19554;-41
2023/04/25 07:55:18;;;;;;;;;4.00;4.00;;;;;21.92;42.60;99771.60;111870;1266;19390;-43
2023/04/25 07:57:45;;;;;;;;;8.00;7.00;;;;;21.86;42.55;99774.52;111557;1266;20241;-43
2023/04/25 08:00:13;;;;;;;;;8.00;7.00;;;;;21.68;41.78;99777.43;111915;1266;18765;-43
2023/04/25 08:02:40;;;;;;;;;8.00;7.00;;;;;21.40;41.22;99784.36;111586;1266;19360;-44
2023/04/25 08:05:11;;;;;;;;;10.00;8.00;;;;;21.24;40.80;99785.79;111909;1250;21491;-40
2023/04/25 08:07:38;;;;;;;;;7.00;7.00;;;;;21.18;40.41;99781.67;111828;1260;18748;-39
2023/04/25 08:10:06;;;;;;;;;118.00;89.00;;;;;21.41;40.69;99783.19;111501;1266;21971;-40
2023/04/25 08:12:34;;;;;;;;;96.00;70.00;;;;;21.60;40.81;99781.15;111838;1266;21600;-39
2023/04/25 08:15:01;;;;;;;;;96.00;70.00;;;;;21.74;40.72;99781.44;111505;1266;18944;-39
2023/04/25 08:17:29;;;;;;;;;103.00;74.33;;;;;21.82;40.63;99780.70;111863;1250;19484;-39
2023/04/25 08:19:56;;;;;;;;;105.00;72.50;;;;;21.89;40.94;99781.55;111438;1266;23353;-40
2023/04/25 08:22:24;;;;;;;;;95.00;68.00;;;;;21.94;40.94;99781.27;111806;1250;19104;-39
2023/04/25 08:24:51;;;;;;;;;78.00;59.00;;;;;21.95;41.29;99775.95;111462;1250;20841;-38
2023/04/25 08:27:20;;;;;;;;;66.50;50.50;;;;;21.96;41.54;99780.10;111689;1250;186837;-38
2023/04/25 08:29:48;;;;;;;;;67.00;50.00;;;;;21.97;41.75;99779.67;111961;1251;20031;-38
2023/04/25 08:32:15;;;;;;;;;55.00;44.00;;;;;21.97;42.15;99781.61;111605;1266;20840;-37
2023/04/25 08:34:43;;;;;;;;;30.00;27.00;;;;;21.95;42.43;99781.48;111870;1265;21507;-38
2023/04/25 08:37:11;;;;;;;;;45.00;34.00;;;;;21.91;42.41;99779.75;111535;1266;18640;-37
2023/04/25 08:39:38;;;;;;;;;34.00;27.00;;;;;21.89;42.40;99775.98;111869;1266;22083;-37
2023/04/25 08:42:07;;;;;;;;;34.50;28.00;;;;;21.91;42.50;99774.08;111565;1250;20338;-38
2023/04/25 08:44:34;;;;;;;;;31.00;29.00;;;;;21.93;42.92;99773.83;111771;1265;19904;-40
2023/04/25 08:47:02;;;;;;;;;29.00;25.00;;;;;21.94;43.19;99771.50;111585;1260;20897;-39
2023/04/25 08:49:29;;;;;;;;;27.00;24.00;;;;;21.96;43.22;99769.98;111736;1260;19844;-39
2023/04/25 08:51:57;;;;;;;;;28.50;26.00;;;;;21.95;43.39;99772.59;111675;1250;19992;-39
2023/04/25 08:54:26;;;;;;;;;17.50;16.00;;;;;21.94;43.36;99778.36;111792;1266;19486;-38
2023/04/25 08:56:53;;;;;;;;;26.00;19.00;;;;;21.94;43.59;99780.63;111987;1250;21541;-40
2023/04/25 08:59:20;;;;;;;;;24.00;18.50;;;;;21.93;43.70;99780.70;111698;1260;21116;-38
2023/04/25 09:01:48;;;;;;;;;23.00;15.00;;;;;21.94;43.82;99786.09;111935;1266;20848;-38
2023/04/25 09:04:15;;;;;;;;;23.00;15.00;;;;;21.94;43.95;99788.18;111589;1266;20185;-38
2023/04/25 09:06:43;;;;;;;;;20.33;11.00;;;;;21.93;43.86;99791.79;111962;1250;19920;-39
2023/04/25 09:09:10;;;;;;;;;11.00;10.00;;;;;21.92;44.10;99793.22;111647;1266;20791;-39
2023/04/25 09:11:38;;;;;;;;;14.00;11.00;;;;;21.91;44.23;99793.34;111951;1266;21399;-38
2023/04/25 09:14:05;;;;;;;;;14.00;13.00;;;;;21.92;44.36;99799.30;111619;1266;19924;-39
2023/04/25 09:16:33;;;;;;;;;13.00;10.00;;;;;21.92;44.44;99804.30;111960;1266;19571;-38
2023/04/25 09:19:00;;;;;;;;;15.00;10.50;;;;;21.92;44.44;99802.83;111663;1250;21641;-38
2023/04/25 09:21:30;;;;;;;;;10.00;8.00;;;;;21.94;44.66;99808.45;111910;1250;20015;-40
2023/04/25 09:23:59;;;;;;;;;10.00;8.00;;;;;21.95;44.66;99811.73;111913;1266;22482;-38
2023/04/25 09:26:26;;;;;;;;;6.00;6.00;;;;;21.94;44.75;99813.83;111423;1261;21384;-38
2023/04/25 09:28:54;;;;;;;;;8.00;8.00;;;;;21.91;44.94;99814.04;111812;1252;19990;-38
2023/04/25 09:31:21;;;;;;;;;8.00;7.00;;;;;21.91;44.70;99814.20;111456;1251;20837;-37
2023/04/25 09:33:49;;;;;;;;;6.50;5.50;;;;;21.90;44.83;99813.55;111851;1266;20630;-38
2023/04/25 09:36:16;;;;;;;;;4.67;4.00;;;;;21.89;45.03;99808.59;111433;1250;20762;-37
2023/04/25 09:38:44;;;;;;;;;2.00;2.00;;;;;21.88;44.92;99812.86;111821;1266;19480;-38
2023/04/25 09:41:11;;;;;;;;;4.00;4.00;;;;;21.87;44.88;99819.98;111481;1266;21429;-37
2023/04/25 09:43:39;;;;;;;;;2.00;2.00;;;;;21.87;44.82;99818.81;111818;1250;19833;-37
2023/04/25 09:46:07;;;;;;;;;2.00;2.00;;;;;21.87;44.58;99817.48;111484;1266;19381;-37
2023/04/25 09:48:34;;;;;;;;;2.00;2.00;;;;;21.87;44.45;99817.51;111734;1250;21602;-38
2023/04/25 09:51:02;;;;;;;;;1.00;1.00;;;;;21.87;44.49;99816.76;111667;1251;20739;-38
2023/04/25 09:53:30;;;;;;;;;2.00;2.00;;;;;21.88;44.26;99820.46;111680;1251;21111;-38
2023/04/25 09:55:57;;;;;;;;;1.00;1.00;;;;;21.89;44.18;99824.08;111965;1251;21599;-37
2023/04/25 09:58:25;;;;;;;;;1.00;1.00;;;;;21.87;44.03;99824.73;111684;1266;19705;-37
2023/04/25 10:00:53;;;;;;;;;4.00;3.33;;;;;21.87;44.03;99825.83;111949;1260;20913;-38
2023/04/25 10:03:20;;;;;;;;;1.00;1.00;;;;;21.87;44.08;99828.55;111573;1250;21583;-37
2023/04/25 10:05:48;;;;;;;;;1.50;1.50;;;;;21.88;44.07;99835.91;111976;1266;18862;-37
2023/04/25 10:08:16;;;;;;;;;1.67;1.67;;;;;21.86;43.88;99833.78;111546;1266;19580;-37
2023/04/25 10:10:43;;;;;;;;;1.33;1.33;;;;;21.85;43.98;99831.40;111800;1251;21803;-38
2023/04/25 10:13:11;;;;;;;;;1.00;1.00;;;;;21.84;43.85;99830.23;111532;1266;19755;-38
2023/04/25 10:15:38;;;;;;;;;1.00;1.00;;;;;21.85;43.70;99835.48;111910;1251;20761;-38
2023/04/25 10:18:06;;;;;;;;;1.00;1.00;;;;;21.85;43.66;99837.45;111569;1266;20325;-38
2023/04/25 10:20:33;;;;;;;;;2.00;2.00;;;;;21.87;43.66;99837.73;111866;1266;18771;-38
2023/04/25 10:23:01;;;;;;;;;2.00;2.00;;;;;21.88;43.58;99843.24;111546;1251;19368;-38
2023/04/25 10:25:28;;;;;;;;;2.00;2.00;;;;;21.87;43.61;99846.05;111836;1251;22686;-38
2023/04/25 10:27:56;;;;;;;;;2.00;2.00;;;;;21.86;43.57;99844.82;111520;1251;19692;-38
2023/04/25 10:30:23;;;;;;;;;2.00;2.00;;;;;21.86;43.32;99850.33;111876;1266;19713;-38
2023/04/25 10:32:51;;;;;;;;;2.00;2.00;;;;;21.87;43.32;99849.11;111518;1266;20130;-38
2023/04/25 10:35:18;;;;;;;;;2.00;2.00;;;;;21.87;43.26;99848.55;111855;1266;19584;-38
2023/04/25 10:37:46;;;;;;;;;2.00;2.00;;;;;21.89;43.28;99849.63;111483;1251;20892;-38
2023/04/25 10:40:13;;;;;;;;;2.00;2.00;;;;;21.91;43.24;99851.60;111850;1250;21376;-38
2023/04/25 10:42:41;;;;;;;;;2.00;2.00;;;;;21.92;43.46;99850.80;111545;1266;18743;-38
2023/04/25 10:45:08;;;;;;;;;2.00;2.00;;;;;21.93;43.42;99845.68;111847;1266;19376;-38
2023/04/25 10:47:36;;;;;;;;;4.00;4.00;;;;;21.92;43.18;99844.67;111536;1252;21717;-38
2023/04/25 10:50:03;;;;;;;;;2.00;2.00;;;;;21.92;43.23;99847.54;111864;1266;19505;-38
2023/04/25 10:52:31;;;;;;;;;4.00;4.00;;;;;21.96;43.49;99845.27;111550;1266;21933;-38
2023/04/25 10:54:58;;;;;;;;;2.00;2.00;;;;;21.99;43.58;99846.88;111904;1266;21502;-39
2023/04/25 10:57:25;;;;;;;;;4.00;4.00;;;;;22.01;43.91;99851.95;111584;1266;18782;-38
2023/04/25 10:59:53;;;;;;;;;4.00;4.00;;;;;22.02;43.79;99846.59;111929;1266;20720;-38
2023/04/25 11:02:20;;;;;;;;;4.00;4.00;;;;;22.01;43.87;99845.09;111602;1251;21550;-38
2023/04/25 11:04:48;;;;;;;;;2.00;2.00;;;;;22.02;44.03;99846.04;112010;1250;18513;-38
2023/04/25 11:07:15;;;;;;;;;5.00;4.00;;;;;22.03;44.05;99846.09;111654;1266;20648;-37
2023/04/25 11:09:42;;;;;;;;;2.00;2.00;;;;;22.07;44.22;99850.09;111991;1266;21417;-38
2023/04/25 11:12:12;;;;;;;;;4.00;4.00;;;;;22.10;44.58;99851.75;111699;1266;18920;-38
2023/04/25 11:14:39;;;;;;;;;4.00;4.00;;;;;22.13;45.07;99853.86;111733;1266;20787;-39
2023/04/25 11:17:07;;;;;;;;;5.00;4.00;;;;;22.17;45.49;99855.80;111823;1266;20446;-40
2023/04/25 11:19:34;;;;;;;;;5.00;5.00;;;;;22.17;45.33;99855.59;111840;1251;19656;-39
2023/04/25 11:22:02;;;;;;;;;4.00;4.00;;;;;22.18;45.90;99855.39;111935;1253;19338;-39